createdAt,value
2023-11-23T00:02:18.479Z,102222.56
2023-11-23T00:04:44.870Z,102224.09
2023-11-23T00:07:11.240Z,102219.06
2023-11-23T00:09:37.610Z,102211.69
2023-11-23T00:12:03.993Z,102215.19
2023-11-23T00:14:30.386Z,102219.47
2023-11-23T00:16:56.754Z,102214.41
2023-11-23T00:19:23.145Z,102209.75
2023-11-23T00:21:49.496Z,102205.47
2023-11-23T00:24:15.957Z,102204.31
2023-11-23T00:26:42.337Z,102193.41
2023-11-23T00:29:08.681Z,102192.66
2023-11-23T00:31:35.026Z,102190.69
2023-11-23T00:34:01.499Z,102187.19
2023-11-23T00:36:27.974Z,102184.47
2023-11-23T00:38:54.314Z,102184.06
2023-11-23T00:41:20.662Z,102184.06
2023-11-23T00:43:46.994Z,102178.25
2023-11-23T00:46:13.347Z,102170.88
2023-11-23T00:48:39.774Z,102161.53
2023-11-23T00:51:06.209Z,102160.00
2023-11-23T00:53:32.569Z,102162.72
2023-11-23T00:55:58.925Z,102158.06
2023-11-23T00:58:25.289Z,102161.94
2023-11-23T01:00:51.665Z,102153.78
2023-11-23T01:03:18.187Z,102144.84
2023-11-23T01:05:44.596Z,102146.00
2023-11-23T01:08:10.928Z,102130.44
2023-11-23T01:10:37.276Z,102141.34
2023-11-23T01:13:03.618Z,102138.63
2023-11-23T01:15:29.993Z,102149.88
2023-11-23T01:17:56.413Z,102147.16
2023-11-23T01:20:22.782Z,102148.34
2023-11-23T01:22:49.125Z,102137.44
2023-11-23T01:25:15.480Z,102137.44
2023-11-23T01:27:41.812Z,102151.06
2023-11-23T01:30:08.221Z,102144.84
2023-11-23T01:32:34.760Z,102151.84
2023-11-23T01:35:01.142Z,102147.91
2023-11-23T01:37:27.526Z,102154.13
2023-11-23T01:39:53.863Z,102150.63
2023-11-23T01:42:20.196Z,102162.28
2023-11-23T01:44:46.562Z,102167.75
2023-11-23T01:47:12.946Z,102165.78
2023-11-23T01:49:39.310Z,102161.53
2023-11-23T01:52:05.664Z,102156.84
2023-11-23T01:54:32.039Z,102153.34
2023-11-23T01:56:58.386Z,102163.50
2023-11-23T01:59:24.785Z,102166.22
2023-11-23T02:01:51.143Z,102162.72
2023-11-23T02:04:17.584Z,102173.19
2023-11-23T02:06:43.964Z,102170.47
2023-11-23T02:09:10.332Z,102164.25
2023-11-23T02:11:36.710Z,102160.00
2023-11-23T02:14:03.061Z,102155.31
2023-11-23T02:16:29.461Z,102160.78
2023-11-23T02:18:55.838Z,102170.09
2023-11-23T02:21:22.186Z,102169.69
2023-11-23T02:23:48.590Z,102176.31
2023-11-23T02:26:14.932Z,102168.94
2023-11-23T02:28:41.265Z,102168.16
2023-11-23T02:31:07.620Z,102175.13
2023-11-23T02:33:34.111Z,102176.31
2023-11-23T02:36:00.529Z,102179.44
2023-11-23T02:38:26.893Z,102178.63
2023-11-23T02:40:53.246Z,102181.34
2023-11-23T02:43:19.578Z,102173.97
2023-11-23T02:45:45.942Z,102161.53
2023-11-23T02:48:12.380Z,102169.28
2023-11-23T02:50:38.785Z,102159.56
2023-11-23T02:53:05.232Z,102165.78
2023-11-23T02:55:31.595Z,102165.03
2023-11-23T02:57:57.943Z,102159.97
2023-11-23T03:00:24.315Z,102165.03
2023-11-23T03:02:50.751Z,102160.34
2023-11-23T03:05:17.140Z,102158.41
2023-11-23T03:07:43.502Z,102165.03
2023-11-23T03:10:09.859Z,102163.06
2023-11-23T03:12:36.208Z,102159.56
2023-11-23T03:15:02.600Z,102170.06
2023-11-23T03:17:29.067Z,102164.63
2023-11-23T03:19:55.442Z,102163.84
2023-11-23T03:22:21.769Z,102166.56
2023-11-23T03:24:48.120Z,102165.78
2023-11-23T03:27:14.479Z,102165.03
2023-11-23T03:29:40.882Z,102172.00
2023-11-23T03:32:07.226Z,102180.97
2023-11-23T03:34:33.591Z,102164.63
2023-11-23T03:36:59.955Z,102162.28
2023-11-23T03:39:26.332Z,102166.56
2023-11-23T03:41:52.732Z,102163.84
2023-11-23T03:44:19.079Z,102168.50
2023-11-23T03:46:45.449Z,102167.34
2023-11-23T03:49:11.813Z,102163.06
2023-11-23T03:51:38.163Z,102165.78
2023-11-23T03:54:04.620Z,102163.06
2023-11-23T03:56:31.068Z,102163.84
2023-11-23T03:58:57.432Z,102164.63
2023-11-23T04:01:23.788Z,102169.28
2023-11-23T04:03:50.198Z,102168.91
2023-11-23T04:06:16.700Z,102165.03
2023-11-23T04:08:43.062Z,102160.34
2023-11-23T04:11:09.420Z,102154.91
2023-11-23T04:13:35.825Z,102142.09
2023-11-23T04:16:02.209Z,102145.59
2023-11-23T04:18:28.597Z,102140.53
2023-11-23T04:20:55.024Z,102143.25
2023-11-23T04:23:21.407Z,102149.47
2023-11-23T04:25:47.756Z,102154.53
2023-11-23T04:28:14.097Z,102150.63
2023-11-23T04:30:40.480Z,102154.88
2023-11-23T04:33:06.885Z,102157.25
2023-11-23T04:35:33.321Z,102155.31
2023-11-23T04:37:59.670Z,102155.31
2023-11-23T04:40:26.007Z,102157.25
2023-11-23T04:42:52.362Z,102143.66
2023-11-23T04:45:18.764Z,102149.88
2023-11-23T04:47:45.212Z,102151.38
2023-11-23T04:50:11.606Z,102154.13
2023-11-23T04:52:37.973Z,102149.88
2023-11-23T04:55:04.376Z,102145.59
2023-11-23T04:57:30.802Z,102146.72
2023-11-23T04:59:57.147Z,102141.69
2023-11-23T05:02:23.514Z,102147.88
2023-11-23T05:04:49.864Z,102143.66
2023-11-23T05:07:16.227Z,102145.97
2023-11-23T05:09:42.613Z,102161.50
2023-11-23T05:12:09.000Z,102162.69
2023-11-23T05:14:35.570Z,102158.78
2023-11-23T05:17:02.009Z,102163.06
2023-11-23T05:19:36.217Z,102167.72
2023-11-23T05:22:08.662Z,102170.06
2023-11-23T05:24:35.128Z,102161.88
2023-11-23T05:27:01.537Z,102147.13
2023-11-23T05:29:27.889Z,102149.44
2023-11-23T05:31:54.293Z,102145.94
2023-11-23T05:34:20.649Z,102148.66
2023-11-23T05:36:47.016Z,102157.63
2023-11-23T05:39:13.427Z,102151.38
2023-11-23T05:41:39.777Z,102155.66
2023-11-23T05:44:06.126Z,102148.66
2023-11-23T05:46:32.505Z,102153.72
2023-11-23T05:48:58.863Z,102141.28
2023-11-23T05:51:25.286Z,102146.72
2023-11-23T05:53:51.678Z,102145.94
2023-11-23T05:56:18.021Z,102148.28
2023-11-23T05:58:44.370Z,102137.41
2023-11-23T06:01:12.630Z,102142.84
2023-11-23T06:03:39.523Z,102143.22
2023-11-23T06:06:06.192Z,102142.06
2023-11-23T06:08:32.563Z,102134.69
2023-11-23T06:10:58.944Z,102127.28
2023-11-23T06:13:25.287Z,102129.22
2023-11-23T06:15:51.709Z,102126.50
2023-11-23T06:18:18.215Z,102128.06
2023-11-23T06:20:44.638Z,102130.00
2023-11-23T06:23:11.024Z,102121.06
2023-11-23T06:25:37.369Z,102122.22
2023-11-23T06:30:32.932Z,102119.91
2023-11-23T06:32:59.307Z,102133.13
2023-11-23T06:35:25.741Z,102127.28
2023-11-23T06:37:52.069Z,102128.06
2023-11-23T06:40:18.417Z,102129.59
2023-11-23T06:42:44.778Z,102125.34
2023-11-23T06:45:11.142Z,102135.03
2023-11-23T06:47:37.559Z,102130.78
2023-11-23T06:50:03.928Z,102137.75
2023-11-23T06:52:30.269Z,102138.53
2023-11-23T06:54:56.635Z,102143.19
2023-11-23T06:57:23.046Z,102138.94
2023-11-23T06:59:49.463Z,102143.19
2023-11-23T07:02:15.952Z,102151.38
2023-11-23T07:04:42.405Z,102144.41
2023-11-23T07:07:08.841Z,102152.16
2023-11-23T07:09:35.209Z,102151.38
2023-11-23T07:12:01.598Z,102148.66
2023-11-23T07:14:27.959Z,102150.22
2023-11-23T07:16:54.355Z,102147.88
2023-11-23T07:19:20.813Z,102141.69
2023-11-23T07:21:47.153Z,102136.97
2023-11-23T07:24:13.554Z,102140.13
2023-11-23T07:26:39.919Z,102143.63
2023-11-23T07:29:06.248Z,102135.44
2023-11-23T07:31:32.621Z,102129.59
2023-11-23T07:33:58.988Z,102130.78
2023-11-23T07:36:25.365Z,102127.28
2023-11-23T07:38:51.780Z,102129.59
2023-11-23T07:41:18.199Z,102126.88
2023-11-23T07:43:44.554Z,102129.59
2023-11-23T07:46:10.926Z,102130.38
2023-11-23T07:48:37.355Z,102135.44
2023-11-23T07:51:03.826Z,102139.31
2023-11-23T07:53:30.238Z,102131.16
2023-11-23T07:55:56.584Z,102133.47
2023-11-23T07:58:22.967Z,102138.16
2023-11-23T08:00:49.402Z,102136.22
2023-11-23T08:03:15.873Z,102140.88
2023-11-23T08:05:42.316Z,102141.66
2023-11-23T08:08:08.690Z,102148.25
2023-11-23T08:10:35.051Z,102147.47
2023-11-23T08:13:01.400Z,102131.16
2023-11-23T08:15:27.808Z,102138.94
2023-11-23T08:18:01.521Z,102145.91
2023-11-23T08:20:33.783Z,102141.66
2023-11-23T08:23:00.271Z,102151.34
2023-11-23T08:25:26.735Z,102152.53
2023-11-23T08:27:53.159Z,102150.56
2023-11-23T08:30:19.540Z,102155.25
2023-11-23T08:32:45.908Z,102158.34
2023-11-23T08:35:12.244Z,102157.56
2023-11-23T08:37:38.596Z,102163.78
2023-11-23T08:40:04.962Z,102170.00
2023-11-23T08:42:31.326Z,102169.22
2023-11-23T08:44:57.768Z,102166.13
2023-11-23T08:47:24.143Z,102173.50
2023-11-23T08:49:50.477Z,102162.63
2023-11-23T08:52:16.829Z,102157.94
2023-11-23T08:54:43.161Z,102162.19
2023-11-23T08:57:09.542Z,102154.44
2023-11-23T08:59:35.924Z,102159.91
2023-11-23T09:02:05.814Z,102157.53
2023-11-23T09:04:44.751Z,102154.44
2023-11-23T09:07:12.138Z,102162.97
2023-11-23T09:09:38.496Z,102162.19
2023-11-23T09:12:04.869Z,102168.03
2023-11-23T09:14:37.461Z,102170.75
2023-11-23T09:17:09.398Z,102169.56
2023-11-23T09:19:35.781Z,102178.53
2023-11-23T09:22:02.162Z,102174.25
2023-11-23T09:24:28.552Z,102176.19
2023-11-23T09:26:54.974Z,102176.19
2023-11-23T09:29:21.340Z,102185.53
2023-11-23T09:31:47.706Z,102185.53
2023-11-23T09:34:14.096Z,102182.03
2023-11-23T09:36:40.523Z,102184.38
2023-11-23T09:39:06.899Z,102187.09
2023-11-23T09:41:33.288Z,102188.63
2023-11-23T09:43:59.683Z,102186.66
2023-11-23T09:46:26.066Z,102192.13
2023-11-23T09:48:52.494Z,102190.59
2023-11-23T09:51:18.940Z,102185.16
2023-11-23T09:53:45.286Z,102183.56
2023-11-23T09:56:11.624Z,102188.22
2023-11-23T09:58:37.978Z,102180.06
2023-11-23T10:01:04.424Z,102181.63
2023-11-23T10:03:30.892Z,102178.13
2023-11-23T10:05:57.263Z,102177.72
2023-11-23T10:08:23.648Z,102175.41
2023-11-23T10:10:50.084Z,102175.41
2023-11-23T10:13:16.452Z,102174.22
2023-11-23T10:15:42.826Z,102173.44
2023-11-23T10:18:09.354Z,102166.06
2023-11-23T10:20:37.929Z,102170.72
2023-11-23T10:23:05.331Z,102162.94
2023-11-23T10:25:31.721Z,102166.06
2023-11-23T10:27:58.067Z,102162.16
2023-11-23T10:30:24.443Z,102161.75
2023-11-23T10:32:50.830Z,102153.59
2023-11-23T10:35:17.171Z,102142.72
2023-11-23T10:37:43.587Z,102138.03
2023-11-23T10:40:10.775Z,102131.81
2023-11-23T10:42:38.127Z,102125.97
2023-11-23T10:45:04.567Z,102115.84
2023-11-23T10:47:30.962Z,102115.47
2023-11-23T10:49:57.322Z,102104.97
2023-11-23T10:52:23.667Z,102100.28
2023-11-23T10:54:49.993Z,102099.50
2023-11-23T10:57:16.391Z,102093.28
2023-11-23T10:59:42.735Z,102085.50
2023-11-23T11:02:09.197Z,102083.16
2023-11-23T11:04:35.630Z,102079.66
2023-11-23T11:07:01.987Z,102074.22
2023-11-23T11:09:30.229Z,102070.75
2023-11-23T11:11:57.206Z,102075.75
2023-11-23T11:14:23.607Z,102067.22
2023-11-23T11:16:49.930Z,102064.09
2023-11-23T11:19:16.284Z,102050.09
2023-11-23T11:21:42.696Z,102040.75
2023-11-23T11:24:09.057Z,102028.31
2023-11-23T11:26:35.403Z,102032.59
2023-11-23T11:29:01.742Z,102031.03
2023-11-23T11:31:28.115Z,102036.06
2023-11-23T11:33:54.626Z,102034.13
2023-11-23T11:36:21.033Z,102025.94
2023-11-23T11:38:47.474Z,102032.16
2023-11-23T11:41:13.825Z,102024.00
2023-11-23T11:43:40.179Z,102015.84
2023-11-23T11:46:06.639Z,102007.28
2023-11-23T11:48:33.198Z,102000.28
2023-11-23T11:50:59.684Z,102000.28
2023-11-23T11:53:26.046Z,101997.56
2023-11-23T11:55:52.386Z,101997.94
2023-11-23T11:58:18.720Z,101992.91
2023-11-23T12:00:45.090Z,102002.63
2023-11-23T12:03:11.578Z,101994.06
2023-11-23T12:05:38.001Z,101987.03
2023-11-23T12:08:04.393Z,101995.63
2023-11-23T12:10:30.751Z,101997.16
2023-11-23T12:12:57.104Z,102000.63
2023-11-23T12:15:23.471Z,101993.25
2023-11-23T12:17:49.830Z,101988.22
2023-11-23T12:20:16.194Z,101984.31
2023-11-23T12:22:42.536Z,101983.13
2023-11-23T12:25:08.903Z,101968.75
2023-11-23T12:27:35.280Z,101962.53
2023-11-23T12:30:01.693Z,101965.66
2023-11-23T12:32:28.149Z,101955.13
2023-11-23T12:34:54.499Z,101948.53
2023-11-23T12:37:20.894Z,101949.69
2023-11-23T12:39:47.284Z,101948.53
2023-11-23T12:42:13.668Z,101944.25
2023-11-23T12:44:40.018Z,101934.91
2023-11-23T12:47:06.384Z,101938.81
2023-11-23T12:49:32.764Z,101931.84
2023-11-23T12:51:59.126Z,101928.31
2023-11-23T12:54:25.482Z,101925.59
2023-11-23T12:56:51.847Z,101929.47
2023-11-23T12:59:18.196Z,101924.03
2023-11-23T13:01:44.587Z,101920.94
2023-11-23T13:04:11.032Z,101913.50
2023-11-23T13:06:37.689Z,101916.22
2023-11-23T13:09:04.127Z,101919.34
2023-11-23T13:11:30.501Z,101922.88
2023-11-23T13:13:56.846Z,101910.78
2023-11-23T13:16:23.193Z,101906.13
2023-11-23T13:19:05.495Z,101901.88
2023-11-23T13:21:35.919Z,101908.06
2023-11-23T13:24:02.292Z,101903.41
2023-11-23T13:26:28.641Z,101890.97
2023-11-23T13:28:54.972Z,101898.72
2023-11-23T13:31:21.341Z,101892.94
2023-11-23T13:33:47.732Z,101887.06
2023-11-23T13:36:14.153Z,101875.00
2023-11-23T13:38:40.513Z,101877.38
2023-11-23T13:41:06.850Z,101878.91
2023-11-23T13:43:33.187Z,101883.16
2023-11-23T13:45:59.608Z,101876.94
2023-11-23T13:48:26.074Z,101878.91
2023-11-23T13:50:52.436Z,101876.94
2023-11-23T13:53:18.786Z,101876.16
2023-11-23T13:55:45.113Z,101880.84
2023-11-23T13:58:11.458Z,101892.50
2023-11-23T14:00:37.881Z,101886.28
2023-11-23T14:03:04.343Z,101890.16
2023-11-23T14:05:30.697Z,101883.56
2023-11-23T14:07:57.026Z,101882.41
2023-11-23T14:10:23.387Z,101878.13
2023-11-23T14:12:49.716Z,101876.56
2023-11-23T14:15:17.087Z,101869.13
2023-11-23T14:17:43.733Z,101859.44
2023-11-23T14:20:10.131Z,101860.63
2023-11-23T14:22:36.489Z,101854.38
2023-11-23T14:25:02.914Z,101859.44
2023-11-23T14:27:30.097Z,101864.88
2023-11-23T14:29:57.776Z,101866.41
2023-11-23T14:32:24.153Z,101866.41
2023-11-23T14:34:50.511Z,101859.44
2023-11-23T14:37:16.856Z,101856.28
2023-11-23T14:39:43.264Z,101860.56
2023-11-23T14:42:09.644Z,101853.56
2023-11-23T14:44:36.044Z,101857.84
2023-11-23T14:47:02.414Z,101852.41
2023-11-23T14:49:28.776Z,101856.28
2023-11-23T14:51:55.165Z,101857.06
2023-11-23T14:54:28.876Z,101854.72
2023-11-23T14:57:01.417Z,101851.63
2023-11-23T14:59:27.741Z,101862.50
2023-11-23T15:01:54.172Z,101859.00
2023-11-23T15:04:20.701Z,101858.63
2023-11-23T15:06:47.107Z,101859.78
2023-11-23T15:09:13.537Z,101863.28
2023-11-23T15:11:39.887Z,101852.41
2023-11-23T15:14:06.242Z,101853.56
2023-11-23T15:16:32.641Z,101838.38
2023-11-23T15:18:59.835Z,101829.06
2023-11-23T15:21:28.372Z,101832.56
2023-11-23T15:23:55.647Z,101827.50
2023-11-23T15:26:22.009Z,101821.28
2023-11-23T15:28:48.388Z,101817.78
2023-11-23T15:31:14.794Z,101814.63
2023-11-23T15:33:41.245Z,101804.16
2023-11-23T15:36:07.637Z,101794.81
2023-11-23T15:38:34.037Z,101797.16
2023-11-23T15:41:00.389Z,101793.28
2023-11-23T15:43:26.750Z,101798.72
2023-11-23T15:45:53.186Z,101782.38
2023-11-23T15:48:19.619Z,101775.78
2023-11-23T15:50:46.054Z,101787.84
2023-11-23T15:53:12.382Z,101781.59
2023-11-23T15:55:38.710Z,101774.22
2023-11-23T15:58:05.055Z,101778.88
2023-11-23T16:00:31.436Z,101770.31
2023-11-23T16:02:58.961Z,101773.84
2023-11-23T16:05:25.412Z,101766.44
2023-11-23T16:07:51.793Z,101764.50
2023-11-23T16:10:18.146Z,101766.44
2023-11-23T16:12:44.517Z,101763.72
2023-11-23T16:15:10.953Z,101761.78
2023-11-23T16:17:37.344Z,101762.56
2023-11-23T16:20:03.702Z,101759.84
2023-11-23T16:22:30.051Z,101759.44
2023-11-23T16:24:56.382Z,101747.00
2023-11-23T16:27:22.793Z,101757.50
2023-11-23T16:29:49.247Z,101754.38
2023-11-23T16:32:15.694Z,101755.94
2023-11-23T16:34:42.100Z,101768.00
2023-11-23T16:37:10.526Z,101771.13
2023-11-23T16:39:38.330Z,101769.53
2023-11-23T16:42:04.733Z,101772.28
2023-11-23T16:44:31.056Z,101773.38
2023-11-23T16:46:57.459Z,101766.41
2023-11-23T16:49:23.915Z,101770.66
2023-11-23T16:51:50.403Z,101769.91
2023-11-23T16:54:16.824Z,101762.16
2023-11-23T16:56:43.194Z,101768.78
2023-11-23T16:59:11.791Z,101760.59
2023-11-23T17:01:38.654Z,101762.56
2023-11-23T17:04:05.214Z,101771.13
2023-11-23T17:06:31.712Z,101783.56
2023-11-23T17:08:58.082Z,101784.34
2023-11-23T17:11:24.478Z,101780.44
2023-11-23T17:13:50.843Z,101783.56
2023-11-23T17:16:17.196Z,101768.41
2023-11-23T17:18:43.646Z,101775.81
2023-11-23T17:21:10.040Z,101780.84
2023-11-23T17:23:36.416Z,101772.66
2023-11-23T17:26:02.764Z,101768.41
2023-11-23T17:28:29.127Z,101763.72
2023-11-23T17:30:55.535Z,101749.34
2023-11-23T17:33:21.950Z,101747.38
2023-11-23T17:35:48.352Z,101740.00
2023-11-23T17:38:14.751Z,101738.44
2023-11-23T17:40:41.122Z,101751.31
2023-11-23T17:43:07.481Z,101740.44
2023-11-23T17:45:33.886Z,101744.28
2023-11-23T17:48:00.307Z,101741.94
2023-11-23T17:50:26.678Z,101726.38
2023-11-23T17:52:53.024Z,101724.03
2023-11-23T17:55:19.364Z,101721.31
2023-11-23T17:57:45.752Z,101723.25
2023-11-23T18:00:12.183Z,101719.00
2023-11-23T18:02:38.608Z,101729.88
2023-11-23T18:05:04.963Z,101726.38
2023-11-23T18:07:31.284Z,101726.38
2023-11-23T18:09:57.630Z,101734.56
2023-11-23T18:12:24.100Z,101737.28
2023-11-23T18:14:50.423Z,101736.50
2023-11-23T18:17:16.813Z,101735.31
2023-11-23T18:19:43.176Z,101740.78
2023-11-23T18:22:09.829Z,101734.56
2023-11-23T18:24:36.289Z,101728.34
2023-11-23T18:27:02.644Z,101726.81
2023-11-23T18:29:29.027Z,101726.38
2023-11-23T18:31:55.462Z,101716.28
2023-11-23T18:34:21.839Z,101714.31
2023-11-23T18:36:48.230Z,101719.41
2023-11-23T18:39:14.629Z,101717.88
2023-11-23T18:41:40.988Z,101716.66
2023-11-23T18:44:07.341Z,101719.41
2023-11-23T18:46:33.691Z,101719.41
2023-11-23T18:49:00.077Z,101715.50
2023-11-23T18:51:26.599Z,101706.16
2023-11-23T18:53:52.927Z,101710.81
2023-11-23T18:56:19.262Z,101705.38
2023-11-23T18:58:45.601Z,101701.09
2023-11-23T19:01:12.003Z,101695.25
2023-11-23T19:03:38.593Z,101704.59
2023-11-23T19:06:05.028Z,101708.88
2023-11-23T19:08:31.376Z,101704.59
2023-11-23T19:10:57.728Z,101717.03
2023-11-23T19:13:24.143Z,101717.03
2023-11-23T19:15:50.567Z,101717.03
2023-11-23T19:18:16.971Z,101719.00
2023-11-23T19:20:43.313Z,101711.59
2023-11-23T19:23:09.746Z,101703.44
2023-11-23T19:25:36.103Z,101709.28
2023-11-23T19:28:02.446Z,101714.31
2023-11-23T19:30:28.852Z,101709.28
2023-11-23T19:32:55.300Z,101702.66
2023-11-23T19:35:21.640Z,101697.63
2023-11-23T19:37:47.978Z,101701.09
2023-11-23T19:40:14.386Z,101698.00
2023-11-23T19:42:40.766Z,101685.56
2023-11-23T19:45:07.193Z,101683.59
2023-11-23T19:47:33.572Z,101688.66
2023-11-23T19:49:59.960Z,101674.25
2023-11-23T19:52:26.311Z,101668.81
2023-11-23T19:54:52.729Z,101675.78
2023-11-23T19:57:19.208Z,101676.56
2023-11-23T19:59:45.674Z,101687.88
2023-11-23T20:02:12.096Z,101687.09
2023-11-23T20:04:38.559Z,101683.19
2023-11-23T20:07:04.941Z,101689.38
2023-11-23T20:09:31.315Z,101677.75
2023-11-23T20:11:57.661Z,101676.56
2023-11-23T20:14:24.005Z,101667.22
2023-11-23T20:16:50.399Z,101676.56
2023-11-23T20:19:17.373Z,101684.72
2023-11-23T20:21:44.509Z,101686.66
2023-11-23T20:24:10.885Z,101692.13
2023-11-23T20:26:37.259Z,101693.66
2023-11-23T20:29:03.626Z,101679.28
2023-11-23T20:31:30.041Z,101682.44
2023-11-23T20:33:56.445Z,101687.44
2023-11-23T20:36:22.872Z,101686.25
2023-11-23T20:38:49.216Z,101680.47
2023-11-23T20:41:15.561Z,101685.91
2023-11-23T20:43:42.000Z,101675.03
2023-11-23T20:46:08.474Z,101664.16
2023-11-23T20:48:34.892Z,101671.88
2023-11-23T20:51:01.231Z,101662.16
2023-11-23T20:53:27.560Z,101671.53
2023-11-23T20:55:53.917Z,101661.81
2023-11-23T20:58:20.254Z,101653.25
2023-11-23T21:00:46.820Z,101651.72
2023-11-23T21:03:13.337Z,101646.25
2023-11-23T21:05:39.773Z,101651.72
2023-11-23T21:08:06.119Z,101644.66
2023-11-23T21:10:32.446Z,101650.88
2023-11-23T21:12:58.814Z,101652.41
2023-11-23T21:15:25.203Z,101648.94
2023-11-23T21:17:51.646Z,101644.25
2023-11-23T21:20:18.066Z,101639.97
2023-11-23T21:22:44.457Z,101632.59
2023-11-23T21:25:10.846Z,101643.03
2023-11-23T21:27:37.212Z,101642.72
2023-11-23T21:30:03.699Z,101637.59
2023-11-23T21:32:30.054Z,101646.53
2023-11-23T21:34:56.433Z,101640.31
2023-11-23T21:37:22.772Z,101634.53
2023-11-23T21:39:49.179Z,101643.47
2023-11-23T21:42:15.569Z,101634.53
2023-11-23T21:44:41.898Z,101633.75
2023-11-23T21:47:08.267Z,101633.00
2023-11-23T21:49:34.593Z,101633.00
2023-11-23T21:52:00.935Z,101628.75
2023-11-23T21:54:27.344Z,101628.31
2023-11-23T21:56:53.694Z,101625.59
2023-11-23T21:59:20.024Z,101617.44
2023-11-23T22:01:46.476Z,101612.75
2023-11-23T22:04:12.927Z,101608.47
2023-11-23T22:06:39.372Z,101599.53
2023-11-23T22:09:05.709Z,101598.81
2023-11-23T22:11:32.043Z,101595.31
2023-11-23T22:13:58.400Z,101600.75
2023-11-23T22:16:24.801Z,101610.88
2023-11-23T22:18:51.220Z,101614.38
2023-11-23T22:21:17.661Z,101606.97
2023-11-23T22:23:44.009Z,101598.81
2023-11-23T22:26:10.433Z,101590.63
2023-11-23T22:28:36.845Z,101589.88
2023-11-23T22:31:03.250Z,101594.09
2023-11-23T22:33:29.655Z,101571.97
2023-11-23T22:35:56.061Z,101568.47
2023-11-23T22:38:22.406Z,101568.84
2023-11-23T22:40:48.777Z,101579.75
2023-11-23T22:43:15.233Z,101576.59
2023-11-23T22:45:41.651Z,101572.31
2023-11-23T22:48:08.127Z,101567.66
2023-11-23T22:50:34.500Z,101562.97
2023-11-23T22:53:00.815Z,101564.16
2023-11-23T22:55:27.177Z,101549.81
2023-11-23T22:57:53.523Z,101533.47
2023-11-23T23:00:19.946Z,101532.25
2023-11-23T23:02:46.386Z,101521.38
2023-11-23T23:05:12.793Z,101524.53
2023-11-23T23:07:39.123Z,101534.63
2023-11-23T23:10:05.524Z,101547.06
2023-11-23T23:12:31.933Z,101558.72
2023-11-23T23:14:58.286Z,101542.81
2023-11-23T23:17:24.638Z,101546.31
2023-11-23T23:19:51.033Z,101547.41
2023-11-23T23:22:24.549Z,101542.81
2023-11-23T23:24:55.327Z,101536.19
2023-11-23T23:27:21.782Z,101537.69
2023-11-23T23:29:48.163Z,101545.88
2023-11-23T23:32:14.535Z,101538.91
2023-11-23T23:34:41.008Z,101522.56
2023-11-23T23:37:07.400Z,101510.91
2023-11-23T23:39:33.751Z,101518.31
2023-11-23T23:42:00.225Z,101517.88
2023-11-23T23:44:26.613Z,101513.63
2023-11-23T23:46:53.051Z,101509.31
2023-11-23T23:49:19.459Z,101506.97
2023-11-23T23:51:45.800Z,101513.97
2023-11-23T23:54:12.162Z,101514.75
2023-11-23T23:56:38.493Z,101507.75
2023-11-23T23:59:04.836Z,101501.13
